createdAt,value
2022-08-09T00:01:55.522Z,16.14
2022-08-09T00:04:34.613Z,16.12
2022-08-09T00:07:07.882Z,16.06
2022-08-09T00:09:39.653Z,16.01
2022-08-09T00:12:15.592Z,15.96
2022-08-09T00:14:56.618Z,15.86
2022-08-09T00:18:10.893Z,15.87
2022-08-09T00:20:15.290Z,15.82
2022-08-09T00:22:47.299Z,15.79
2022-08-09T00:25:23.600Z,15.76
2022-08-09T00:28:01.241Z,15.73
2022-08-09T00:30:33.993Z,15.72
2022-08-09T00:33:02.066Z,15.71
2022-08-09T00:35:42.859Z,15.70
2022-08-09T00:38:12.997Z,15.69
2022-08-09T00:40:52.440Z,15.70
2022-08-09T00:44:16.063Z,15.71
2022-08-09T00:46:14.606Z,15.71
2022-08-09T00:49:00.157Z,15.73
2022-08-09T00:51:33.785Z,15.74
2022-08-09T00:54:11.782Z,15.75
2022-08-09T00:56:40.455Z,15.74
2022-08-09T00:59:10.822Z,15.77
2022-08-09T01:01:44.764Z,15.79
2022-08-09T01:04:20.182Z,15.80
2022-08-09T01:07:14.038Z,15.81
2022-08-09T01:09:55.552Z,15.83
2022-08-09T01:12:30.205Z,15.83
2022-08-09T01:15:05.845Z,15.84
2022-08-09T01:18:05.081Z,15.85
2022-08-09T01:20:47.478Z,15.86
2022-08-09T01:24:03.222Z,15.86
2022-08-09T01:26:53.636Z,15.84
2022-08-09T01:29:56.015Z,15.82
2022-08-09T01:32:46.221Z,15.81
2022-08-09T01:35:38.564Z,15.80
2022-08-09T01:38:15.009Z,15.77
2022-08-09T01:41:05.229Z,15.75
2022-08-09T01:43:41.977Z,15.74
2022-08-09T01:46:26.900Z,15.72
2022-08-09T01:49:09.416Z,15.68
2022-08-09T01:51:54.368Z,15.62
2022-08-09T01:54:32.921Z,15.56
2022-08-09T01:57:08.137Z,15.49
2022-08-09T01:59:41.051Z,15.40
2022-08-09T02:02:30.111Z,15.37
2022-08-09T02:05:15.752Z,15.32
2022-08-09T02:08:39.297Z,15.27
2022-08-09T02:10:59.419Z,15.23
2022-08-09T02:13:37.419Z,15.21
2022-08-09T02:16:11.724Z,15.19
2022-08-09T02:18:42.849Z,15.17
2022-08-09T02:21:22.095Z,15.17
2022-08-09T02:23:54.998Z,15.17
2022-08-09T02:26:28.204Z,15.19
2022-08-09T02:29:00.759Z,15.19
2022-08-09T02:31:36.247Z,15.17
2022-08-09T02:34:13.788Z,15.14
2022-08-09T02:37:03.820Z,15.09
2022-08-09T02:39:44.517Z,15.06
2022-08-09T02:42:24.905Z,15.02
2022-08-09T02:45:00.938Z,15.00
2022-08-09T02:47:33.732Z,14.99
2022-08-09T02:50:24.380Z,14.95
2022-08-09T02:53:00.289Z,14.93
2022-08-09T02:55:46.802Z,14.92
2022-08-09T02:58:35.808Z,14.94
2022-08-09T03:01:08.004Z,14.94
2022-08-09T03:04:16.676Z,14.94
2022-08-09T03:06:29.608Z,14.93
2022-08-09T03:09:00.396Z,14.91
2022-08-09T03:12:04.329Z,14.87
2022-08-09T03:14:18.889Z,14.82
2022-08-09T03:16:50.166Z,14.76
2022-08-09T03:19:59.311Z,14.77
2022-08-09T03:22:12.181Z,14.75
2022-08-09T03:24:52.402Z,14.73
2022-08-09T03:27:44.709Z,14.70
2022-08-09T03:30:30.015Z,14.66
2022-08-09T03:33:17.701Z,14.65
2022-08-09T03:36:13.484Z,14.64
2022-08-09T03:38:42.705Z,14.63
2022-08-09T03:41:18.456Z,14.62
2022-08-09T03:44:02.981Z,14.60
2022-08-09T03:46:36.773Z,14.61
2022-08-09T03:49:08.250Z,14.64
2022-08-09T03:51:56.093Z,14.69
2022-08-09T03:54:31.721Z,14.72
2022-08-09T03:57:04.322Z,14.72
2022-08-09T03:59:54.295Z,14.72
2022-08-09T04:02:29.551Z,14.74
2022-08-09T04:05:01.375Z,14.75
2022-08-09T04:07:53.581Z,14.76
2022-08-09T04:10:29.536Z,14.73
2022-08-09T04:13:03.997Z,14.71
2022-08-09T04:16:18.136Z,14.70
2022-08-09T04:18:21.916Z,14.70
2022-08-09T04:20:51.658Z,14.68
2022-08-09T04:23:23.414Z,14.66
2022-08-09T04:25:55.279Z,14.62
2022-08-09T04:28:30.751Z,14.58
2022-08-09T04:31:09.442Z,14.55
2022-08-09T04:33:52.528Z,14.55
2022-08-09T04:36:28.337Z,14.55
2022-08-09T04:39:01.877Z,14.57
2022-08-09T04:41:33.765Z,14.59
2022-08-09T04:44:14.738Z,14.65
2022-08-09T04:46:58.987Z,14.74
2022-08-09T04:49:53.631Z,14.87
2022-08-09T04:52:28.720Z,15.00
2022-08-09T04:55:00.338Z,15.13
2022-08-09T04:57:59.241Z,15.28
2022-08-09T05:00:18.460Z,15.44
2022-08-09T05:02:48.635Z,15.58
2022-08-09T05:05:32.052Z,15.72
2022-08-09T05:08:13.876Z,15.89
2022-08-09T05:10:43.261Z,16.02
2022-08-09T05:13:14.218Z,16.15
2022-08-09T05:15:48.171Z,16.28
2022-08-09T05:18:38.123Z,16.39
2022-08-09T05:21:13.457Z,16.51
2022-08-09T05:24:00.202Z,16.63
2022-08-09T05:26:37.081Z,16.75
2022-08-09T05:29:31.433Z,16.87
2022-08-09T05:32:02.449Z,16.99
2022-08-09T05:34:32.666Z,17.12
2022-08-09T05:37:06.841Z,17.23
2022-08-09T05:39:42.617Z,17.33
2022-08-09T05:42:17.427Z,17.45
2022-08-09T05:44:52.340Z,17.56
2022-08-09T05:47:25.097Z,17.67
2022-08-09T05:50:25.804Z,17.78
2022-08-09T05:52:52.177Z,17.89
2022-08-09T05:55:24.241Z,17.97
2022-08-09T05:57:57.652Z,18.05
2022-08-09T06:00:33.071Z,18.16
2022-08-09T06:03:03.785Z,18.27
2022-08-09T06:05:57.662Z,18.39
2022-08-09T06:08:26.936Z,18.50
2022-08-09T06:10:56.263Z,18.61
2022-08-09T06:13:28.300Z,18.70
2022-08-09T06:15:57.164Z,18.78
2022-08-09T06:18:28.529Z,18.87
2022-08-09T06:20:58.443Z,18.97
2022-08-09T06:23:55.785Z,19.06
2022-08-09T06:26:20.482Z,19.14
2022-08-09T06:29:00.425Z,19.25
2022-08-09T06:31:40.008Z,19.34
2022-08-09T06:34:22.772Z,19.44
2022-08-09T06:36:59.254Z,19.55
2022-08-09T06:39:48.562Z,19.62
2022-08-09T06:42:24.904Z,19.73
2022-08-09T06:45:00.262Z,19.83
2022-08-09T06:47:40.078Z,19.92
2022-08-09T06:50:14.498Z,20.02
2022-08-09T06:52:48.830Z,20.13
2022-08-09T06:55:22.278Z,20.24
2022-08-09T06:58:02.795Z,20.35
2022-08-09T07:00:50.576Z,20.42
2022-08-09T07:03:28.336Z,20.50
2022-08-09T07:06:04.736Z,20.57
2022-08-09T07:08:37.166Z,20.64
2022-08-09T07:11:12.435Z,20.71
2022-08-09T07:14:04.267Z,20.79
2022-08-09T07:16:42.655Z,20.92
2022-08-09T07:19:18.740Z,21.04
2022-08-09T07:21:57.609Z,21.16
2022-08-09T07:24:32.129Z,21.27
2022-08-09T07:27:27.146Z,21.40
2022-08-09T07:30:00.434Z,21.49
2022-08-09T07:32:32.044Z,21.59
2022-08-09T07:35:02.661Z,21.66
2022-08-09T07:37:43.566Z,21.71
2022-08-09T07:40:17.247Z,21.82
2022-08-09T07:42:56.977Z,21.93
2022-08-09T07:45:37.559Z,22.08
2022-08-09T07:48:07.999Z,22.21
2022-08-09T07:51:03.170Z,22.34
2022-08-09T07:54:05.203Z,22.45
2022-08-09T07:56:30.756Z,22.52
2022-08-09T07:59:00.112Z,22.58
2022-08-09T08:01:33.125Z,22.64
2022-08-09T08:04:03.338Z,22.72
2022-08-09T08:06:32.679Z,22.78
2022-08-09T08:09:07.564Z,22.90
2022-08-09T08:12:10.918Z,22.99
2022-08-09T08:14:35.255Z,23.11
2022-08-09T08:17:09.098Z,23.24
2022-08-09T08:19:40.875Z,23.32
2022-08-09T08:22:12.608Z,23.37
2022-08-09T08:24:42.293Z,23.41
2022-08-09T08:27:16.911Z,23.42
2022-08-09T08:29:49.973Z,23.42
2022-08-09T08:32:47.681Z,23.46
2022-08-09T08:35:08.617Z,23.50
2022-08-09T08:37:41.726Z,23.59
2022-08-09T08:40:25.596Z,23.73
2022-08-09T08:42:58.776Z,23.88
2022-08-09T08:45:37.433Z,24.02
2022-08-09T08:48:06.366Z,24.21
2022-08-09T08:50:41.609Z,24.35
2022-08-09T08:53:21.750Z,24.45
2022-08-09T08:55:52.593Z,24.64
2022-08-09T08:58:27.219Z,24.77
2022-08-09T09:00:57.957Z,24.84
2022-08-09T09:03:37.928Z,24.92
2022-08-09T09:06:10.291Z,24.98
2022-08-09T09:08:42.472Z,25.00
2022-08-09T09:11:17.164Z,25.06
2022-08-09T09:13:57.556Z,25.11
2022-08-09T09:16:34.408Z,25.18
2022-08-09T09:22:00.690Z,25.37
2022-08-09T09:24:34.651Z,25.48
2022-08-09T09:27:04.259Z,25.59
2022-08-09T09:30:09.324Z,25.72
2022-08-09T09:32:35.000Z,25.86
2022-08-09T09:35:10.018Z,25.94
2022-08-09T09:37:40.204Z,26.02
2022-08-09T09:40:11.793Z,26.02
2022-08-09T09:42:46.301Z,26.01
2022-08-09T09:45:25.848Z,26.00
2022-08-09T09:48:03.274Z,25.99
2022-08-09T09:50:49.568Z,25.99
2022-08-09T09:53:34.410Z,26.07
2022-08-09T09:56:19.781Z,26.20
2022-08-09T09:59:01.779Z,26.25
2022-08-09T10:01:38.049Z,26.29
2022-08-09T10:04:22.811Z,26.33
2022-08-09T10:07:03.500Z,26.39
2022-08-09T10:09:54.570Z,26.37
2022-08-09T10:12:28.440Z,26.34
2022-08-09T10:15:17.252Z,26.27
2022-08-09T10:17:56.674Z,26.12
2022-08-09T10:20:35.386Z,25.92
2022-08-09T10:23:20.316Z,25.71
2022-08-09T10:26:07.524Z,25.59
2022-08-09T10:28:40.606Z,25.50
2022-08-09T10:34:10.954Z,25.52
2022-08-09T10:36:57.561Z,25.46
2022-08-09T10:39:28.458Z,25.50
2022-08-09T10:41:57.934Z,25.51
2022-08-09T10:44:31.813Z,25.58
2022-08-09T10:48:12.343Z,25.57
2022-08-09T10:50:31.194Z,25.49
2022-08-09T10:53:28.008Z,25.47
2022-08-09T10:56:26.767Z,25.48
2022-08-09T10:58:57.130Z,25.51
2022-08-09T11:03:15.648Z,25.49
2022-08-09T11:04:32.856Z,25.47
2022-08-09T11:07:03.849Z,25.52
2022-08-09T11:09:38.379Z,25.52
2022-08-09T11:12:18.185Z,25.49
2022-08-09T11:14:58.998Z,25.59
2022-08-09T11:17:27.408Z,25.62
2022-08-09T11:20:22.313Z,25.65
2022-08-09T11:22:55.527Z,25.78
2022-08-09T11:25:44.742Z,25.88
2022-08-09T11:28:54.053Z,25.98
2022-08-09T11:31:39.033Z,26.09
2022-08-09T11:34:23.151Z,26.20
2022-08-09T11:36:52.086Z,26.28
2022-08-09T11:39:20.211Z,26.37
2022-08-09T11:41:48.899Z,26.48
2022-08-09T11:44:17.633Z,26.62
2022-08-09T11:46:58.063Z,26.75
2022-08-09T11:50:54.223Z,26.93
2022-08-09T11:53:15.523Z,27.11
2022-08-09T11:56:02.498Z,27.29
2022-08-09T11:58:33.731Z,27.47
2022-08-09T12:01:08.772Z,27.64
2022-08-09T12:03:57.427Z,27.71
2022-08-09T12:06:32.372Z,27.92
2022-08-09T12:09:05.957Z,28.13
2022-08-09T12:12:02.626Z,28.36
2022-08-09T12:14:37.206Z,28.58
2022-08-09T12:17:34.448Z,28.75
2022-08-09T12:20:16.243Z,28.92
2022-08-09T12:22:50.546Z,29.04
2022-08-09T12:25:31.858Z,29.21
2022-08-09T12:29:12.642Z,29.34
2022-08-09T12:31:11.125Z,29.56
2022-08-09T12:34:01.146Z,29.77
2022-08-09T12:36:31.776Z,30.08
2022-08-09T12:39:01.071Z,30.36
2022-08-09T12:41:39.189Z,30.55
2022-08-09T12:44:12.758Z,30.75
2022-08-09T12:46:49.192Z,31.03
2022-08-09T12:49:19.153Z,31.13
2022-08-09T12:52:02.850Z,31.34
2022-08-09T12:56:11.133Z,31.49
2022-08-09T12:57:47.120Z,31.68
2022-08-09T13:00:25.156Z,31.76
2022-08-09T13:02:58.645Z,31.88
2022-08-09T13:05:50.702Z,32.14
2022-08-09T13:08:40.092Z,32.30
2022-08-09T13:11:13.130Z,32.15
2022-08-09T13:14:41.499Z,31.83
2022-08-09T13:17:15.871Z,31.52
2022-08-09T13:20:07.430Z,31.15
2022-08-09T13:23:01.700Z,30.83
2022-08-09T13:25:24.378Z,30.64
2022-08-09T13:27:55.750Z,30.46
2022-08-09T13:30:50.252Z,30.33
2022-08-09T13:33:35.993Z,30.35
2022-08-09T13:36:39.606Z,30.67
2022-08-09T13:39:08.223Z,31.23
2022-08-09T13:41:59.096Z,31.83
2022-08-09T13:44:30.142Z,32.03
2022-08-09T13:47:26.616Z,32.08
2022-08-09T13:49:58.271Z,32.06
2022-08-09T13:52:31.195Z,31.86
2022-08-09T13:55:04.951Z,31.60
2022-08-09T13:57:41.068Z,31.35
2022-08-09T14:00:15.502Z,31.12
2022-08-09T14:03:04.411Z,30.83
2022-08-09T14:05:58.426Z,30.60
2022-08-09T14:08:23.261Z,30.36
2022-08-09T14:10:52.847Z,30.29
2022-08-09T14:14:14.746Z,30.20
2022-08-09T14:16:14.968Z,29.93
2022-08-09T14:18:49.656Z,29.81
2022-08-09T14:21:22.379Z,29.64
2022-08-09T14:23:55.372Z,29.45
2022-08-09T14:26:32.547Z,29.22
2022-08-09T14:29:25.674Z,29.06
2022-08-09T14:31:56.486Z,28.96
2022-08-09T14:34:27.552Z,28.93
2022-08-09T14:37:06.564Z,28.87
2022-08-09T14:39:46.775Z,28.84
2022-08-09T14:42:30.502Z,28.86
2022-08-09T14:46:57.173Z,28.92
2022-08-09T14:48:00.176Z,28.94
2022-08-09T14:50:33.034Z,29.16
2022-08-09T14:53:06.384Z,29.55
2022-08-09T14:55:47.754Z,29.99
2022-08-09T14:58:19.928Z,30.34
2022-08-09T15:00:51.074Z,30.58
2022-08-09T15:03:22.096Z,30.71
2022-08-09T15:05:54.838Z,30.68
2022-08-09T15:08:26.699Z,30.60
2022-08-09T15:11:00.643Z,30.44
2022-08-09T15:13:29.943Z,30.34
2022-08-09T15:16:17.586Z,30.19
2022-08-09T15:18:48.473Z,30.10
2022-08-09T15:22:00.490Z,30.09
2022-08-09T15:24:12.366Z,30.01
2022-08-09T15:26:46.026Z,30.10
2022-08-09T15:30:48.739Z,30.27
2022-08-09T15:32:04.699Z,30.28
2022-08-09T15:34:35.460Z,30.51
2022-08-09T15:37:24.318Z,30.93
2022-08-09T15:40:11.459Z,31.50
2022-08-09T15:42:42.648Z,31.83
2022-08-09T15:45:12.750Z,32.24
2022-08-09T15:47:51.877Z,32.70
2022-08-09T15:50:30.611Z,33.13
2022-08-09T15:53:06.115Z,33.27
2022-08-09T15:56:04.542Z,33.18
2022-08-09T15:58:26.862Z,32.88
2022-08-09T16:00:56.525Z,32.81
2022-08-09T16:03:29.622Z,33.00
2022-08-09T16:06:27.243Z,33.20
2022-08-09T16:08:59.138Z,33.30
2022-08-09T16:11:30.872Z,33.49
2022-08-09T16:14:07.114Z,33.70
2022-08-09T16:16:41.806Z,34.03
2022-08-09T16:19:13.899Z,34.43
2022-08-09T16:21:48.758Z,34.74
2022-08-09T16:24:33.577Z,35.01
2022-08-09T16:27:04.816Z,35.23
2022-08-09T16:29:37.442Z,35.39
2022-08-09T16:32:18.885Z,35.47
2022-08-09T16:34:58.349Z,35.89
2022-08-09T16:37:56.165Z,36.06
2022-08-09T16:40:20.469Z,36.07
2022-08-09T16:42:59.578Z,36.17
2022-08-09T16:45:30.428Z,36.42
2022-08-09T16:48:50.782Z,36.53
2022-08-09T16:50:49.900Z,36.34
2022-08-09T16:53:32.274Z,36.12
2022-08-09T16:56:09.342Z,35.90
2022-08-09T16:58:39.808Z,35.72
2022-08-09T17:01:19.498Z,35.53
2022-08-09T17:03:54.497Z,35.44
2022-08-09T17:06:29.209Z,35.39
2022-08-09T17:09:12.025Z,35.48
2022-08-09T17:11:48.170Z,35.54
2022-08-09T17:14:27.945Z,35.35
2022-08-09T17:16:59.833Z,35.22
2022-08-09T17:19:47.329Z,35.02
2022-08-09T17:22:24.188Z,34.81
2022-08-09T17:25:02.989Z,34.67
2022-08-09T17:27:34.519Z,34.45
2022-08-09T17:30:14.235Z,34.30
2022-08-09T17:32:44.443Z,34.14
2022-08-09T17:35:14.692Z,33.99
2022-08-09T17:38:02.525Z,33.82
2022-08-09T17:40:34.530Z,33.64
2022-08-09T17:43:32.362Z,33.32
2022-08-09T17:46:03.801Z,32.99
2022-08-09T17:48:38.993Z,32.70
2022-08-09T17:51:18.451Z,32.36
2022-08-09T17:53:52.323Z,32.01
2022-08-09T17:56:28.819Z,31.68
2022-08-09T17:59:03.260Z,31.32
2022-08-09T18:01:41.434Z,30.93
2022-08-09T18:04:20.368Z,30.46
2022-08-09T18:06:54.561Z,29.99
2022-08-09T18:09:40.356Z,29.56
2022-08-09T18:12:17.759Z,29.15
2022-08-09T18:14:53.586Z,28.78
2022-08-09T18:17:27.075Z,28.44
2022-08-09T18:20:55.000Z,28.14
2022-08-09T18:23:05.652Z,27.84
2022-08-09T18:25:51.063Z,27.60
2022-08-09T18:30:39.810Z,27.28
2022-08-09T18:31:24.971Z,26.92
2022-08-09T18:34:00.615Z,26.63
2022-08-09T18:36:32.363Z,26.40
2022-08-09T18:39:04.182Z,26.22
2022-08-09T18:41:34.294Z,26.05
2022-08-09T18:44:12.971Z,25.87
2022-08-09T18:46:46.177Z,25.67
2022-08-09T18:49:19.463Z,25.54
2022-08-09T18:51:55.646Z,25.40
2022-08-09T18:54:28.500Z,25.20
2022-08-09T18:57:06.193Z,24.95
2022-08-09T18:59:37.304Z,24.76
2022-08-09T19:02:19.125Z,24.60
2022-08-09T19:04:47.431Z,24.45
2022-08-09T19:07:16.492Z,24.31
2022-08-09T19:10:14.096Z,24.18
2022-08-09T19:12:36.622Z,24.02
2022-08-09T19:15:08.474Z,23.86
2022-08-09T19:17:54.750Z,23.72
2022-08-09T19:20:25.155Z,23.57
2022-08-09T19:22:54.491Z,23.43
2022-08-09T19:25:42.647Z,23.32
2022-08-09T19:28:13.046Z,23.22
2022-08-09T19:30:44.230Z,23.11
2022-08-09T19:33:19.702Z,23.02
2022-08-09T19:35:57.272Z,22.94
2022-08-09T19:38:27.842Z,22.76
2022-08-09T19:40:57.851Z,22.64
2022-08-09T19:44:02.057Z,22.50
2022-08-09T19:46:17.312Z,22.39
2022-08-09T19:50:08.109Z,22.29
2022-08-09T19:51:55.264Z,22.19
2022-08-09T19:54:25.695Z,22.10
2022-08-09T19:56:55.520Z,22.04
2022-08-09T19:59:57.300Z,21.98
2022-08-09T20:02:17.126Z,21.93
2022-08-09T20:05:02.251Z,21.89
2022-08-09T20:07:59.044Z,21.84
2022-08-09T20:10:34.391Z,21.79
2022-08-09T20:13:08.098Z,21.76
2022-08-09T20:16:34.581Z,21.73
2022-08-09T20:18:27.879Z,21.68
2022-08-09T20:20:57.417Z,21.64
2022-08-09T20:23:38.954Z,21.60
2022-08-09T20:26:10.076Z,21.55
2022-08-09T20:28:48.483Z,21.49
2022-08-09T20:31:18.234Z,21.45
2022-08-09T20:33:58.174Z,21.40
2022-08-09T20:36:27.485Z,21.35
2022-08-09T20:39:27.977Z,21.30
2022-08-09T20:41:43.822Z,21.22
2022-08-09T20:44:12.963Z,21.16
2022-08-09T20:46:44.744Z,21.10
2022-08-09T20:49:15.722Z,21.05
2022-08-09T20:51:50.405Z,20.99
2022-08-09T20:54:19.888Z,20.93
2022-08-09T20:56:49.690Z,20.89
2022-08-09T20:59:24.960Z,20.81
2022-08-09T21:02:17.451Z,20.74
2022-08-09T21:05:55.076Z,20.68
2022-08-09T21:07:40.283Z,20.63
2022-08-09T21:10:10.919Z,20.58
2022-08-09T21:12:39.472Z,20.46
2022-08-09T21:15:10.788Z,20.48
2022-08-09T21:18:24.831Z,20.44
2022-08-09T21:20:32.554Z,20.41
2022-08-09T21:23:04.325Z,20.36
2022-08-09T21:25:56.229Z,20.33
2022-08-09T21:28:34.913Z,20.28
2022-08-09T21:31:17.241Z,20.25
2022-08-09T21:33:50.237Z,20.22
2022-08-09T21:36:28.165Z,20.19
2022-08-09T21:38:59.471Z,20.14
2022-08-09T21:42:05.232Z,20.13
2022-08-09T21:44:34.800Z,20.09
2022-08-09T21:47:08.996Z,20.03
2022-08-09T21:49:43.193Z,19.98
2022-08-09T21:52:17.663Z,19.91
2022-08-09T21:55:02.876Z,19.85
2022-08-09T21:57:38.894Z,19.79
2022-08-09T22:00:32.330Z,19.73
2022-08-09T22:03:04.901Z,19.70
2022-08-09T22:05:37.668Z,19.66
2022-08-09T22:08:14.583Z,19.63
2022-08-09T22:11:05.083Z,19.58
2022-08-09T22:13:36.858Z,19.53
2022-08-09T22:16:07.703Z,19.48
2022-08-09T22:18:52.813Z,19.44
2022-08-09T22:21:27.508Z,19.39
2022-08-09T22:24:16.620Z,19.35
2022-08-09T22:26:50.971Z,19.33
2022-08-09T22:29:26.866Z,19.29
2022-08-09T22:32:01.122Z,19.29
2022-08-09T22:34:29.088Z,19.29
2022-08-09T22:36:58.500Z,19.29
2022-08-09T22:39:55.448Z,19.28
2022-08-09T22:42:22.296Z,19.27
2022-08-09T22:44:59.875Z,19.26
2022-08-09T22:48:11.353Z,19.26
2022-08-09T22:50:18.730Z,19.25
2022-08-09T22:52:47.011Z,19.25
2022-08-09T22:55:24.049Z,19.24
2022-08-09T22:57:59.832Z,19.21
2022-08-09T23:00:29.884Z,19.19
2022-08-09T23:02:58.467Z,19.16
2022-08-09T23:05:26.499Z,19.13
2022-08-09T23:08:29.139Z,19.11
2022-08-09T23:10:58.089Z,19.09
2022-08-09T23:13:26.440Z,19.05
2022-08-09T23:16:02.836Z,19.04
2022-08-09T23:18:31.940Z,19.02
2022-08-09T23:21:00.029Z,19.02
2022-08-09T23:23:28.764Z,19.00
2022-08-09T23:25:57.075Z,19.00
2022-08-09T23:28:26.063Z,18.98
2022-08-09T23:30:53.851Z,18.96
2022-08-09T23:33:22.342Z,18.93
2022-08-09T23:36:04.679Z,18.90
2022-08-09T23:38:49.136Z,18.85
2022-08-09T23:41:28.851Z,18.82
2022-08-09T23:44:02.400Z,18.78
2022-08-09T23:46:31.727Z,18.75
2022-08-09T23:49:01.930Z,18.72
2022-08-09T23:51:30.751Z,18.68
2022-08-09T23:54:02.497Z,18.64
2022-08-09T23:56:52.884Z,18.61
2022-08-09T23:59:23.609Z,18.57
